Aktualne dane pomiarowe

Uwaga, wersja testowa! Automatyczne pobieranie danych za pomocą narzędzi lub skryptów to umożliwiających jest zabronione.

Dane meteo z obszaru Polski uzyskane na podstawie depesz SYNOP pobieranych co godzinę z NWS. Najedź myszką na symbol przedstawiony w tabeli, aby uzyskać informacje co do jego znaczenia. Prosimy pamiętać, że to testowa wersja strony, która jeszcze nie jest ukończona. Stworzono również jest krótki FAQ dotyczący korzystania z tej podstrony Anomalie temperatury w chwili obecnej odniesione są do okresu referencyjnego 1951-2016. Okres ten będzie później zmieniony na 1981-2010. Kliknij ikonę aby pobrać plik CSV. Kliknij ikonę aby wygenerować mapę synoptyczną dla danego terminu.

Wybierz Datę:    

        

Lublin-Radawiec (12495)

Dane terminowe dla wybranej stacji. Kliknij datę, aby otrzymać dane z tego terminu dla wszystkich stacji.

TemperaturaZachmurzenieWiatrCiśnienieOpadyPogoda
 Data t td wb tx tn tg rh  Nt Nl Cl Cm Ch ws wd g1 g2 wx mslp ppp ch 24h 12h t ww ww w1 w2  
2019-06-30 23:00:00 20.1 16.0 17.3--- 7745.0wx-1wx--11013.3 985.4 0.0---------
2019-06-30 22:00:00 20.8 15.7 17.4--- 7350.0wx-1wx--11013.3 985.4 -0.1---------
2019-06-30 21:00:00 21.2 13.0 16.0--- 6050.0wx-1wx--11013.2 985.4 -0.2---------
2019-06-30 20:00:00 22.2 14.2 17.1--- 6150.0wx-0----1013.1 985.4 -0.5---------
2019-06-30 19:00:00 25.1 14.0 18.1--- 5050.0wx-1wx--11013.0 985.5 -0.7---------
2019-06-30 18:00:00 28.5 14.4 19.6 32.3 21.3- 4240.0wx-0---01012.7 985.6 -1.0- 0.012------
2019-06-30 17:00:00 31.3 12.7 19.8--- 3235.0wx-2wx--21012.8 985.9 -1.3---------
2019-06-30 16:00:00 32.1 11.9 19.8--- 2940.0wx-3wx--31013.0 986.2 -1.4---------
2019-06-30 15:00:00 32.0 12.3 19.9--- 3035.0wx-4wx--41013.5 986.6 -1.5---------
2019-06-30 14:00:00 31.6 11.5 19.4--- 2935.0wx-4wx--41014.1 987.2 -1.4---------
2019-06-30 13:00:00 31.3 11.7 19.4--- 3030.0wx-3wx--31014.5 987.6 -1.3---------
2019-06-30 12:00:00 30.4 11.0 18.7--- 3030.0wx-4wx-1041015.1 988.1 -0.9- 0.06------
2019-06-30 11:00:00 29.6 10.3 18.1--- 3030.0wx-4wx--41015.7 988.6 -0.5---------
2019-06-30 10:00:00 28.1 10.4 17.6--- 3335.0wx-5wx-1051016.2 988.9 -0.3---------
2019-06-30 09:00:00 26.6 11.2 17.4--- 3827.0wx-5wx---1016.4 989.0 -0.2---------
2019-06-30 08:00:00 25.4 11.6 17.1--- 4235.0wx-4wx--41016.6 989.1 -0.1---------
2019-06-30 07:00:00 23.6 12.0 16.5--- 4825.0wx-3wx--31016.9 989.2 0.4---------
2019-06-30 06:00:00 21.3 11.4 15.3 22.1 15.5 12 5327.0wx-wx3wx--31017.1 989.2 0.6- 0.012----- 12.5
2019-06-30 05:00:00 18.7 10.4 13.7--- 5945.0wx-wx3wx--31017.4 989.2 0.8---------
2019-06-30 04:00:00 16.9 9.9 12.6--- 6340.0wx-wxwx2wx---1017.1 988.8 0.0---------
2019-06-30 03:00:00 15.8 8.9 11.6--- 6450.0wx-wx2wx--21017.0 988.6 -0.3---------
2019-06-30 02:00:00 16.2 9.0 11.9--- 6245.0wx-3wx--31016.8 988.4 -0.8---------
2019-06-30 01:00:00 16.5 9.3 12.1--- 6250.0wx-2wx--21017.2 988.8 -0.5---------
2019-06-30 00:00:00 16.9 9.7 12.5--- 6350.0wx-2wx--21017.2 988.9 -0.6- 0.06------
2019-06-29 23:00:00 17.7 9.7 12.9--- 5950.0wx-2wx---1017.5 989.2 -0.3---------
2019-06-29 22:00:00 16.1 10.1 12.4--- 6850.0wx-1wx---1017.7 989.3 -0.3---------
2019-06-29 21:00:00 17.1 10.1 12.8--- 6330.0wx-2wx--21017.8 989.5 0.1---------
2019-06-29 20:00:00 17.1 10.3 12.9--- 6430.0wx-1wx--11017.8 989.5 0.2---------
2019-06-29 19:00:00 18.8 10.2 13.6--- 5730.0wx-wxwx2wx--21017.8 989.6 0.4---------
2019-06-29 18:00:00 21.8 10.1 14.9 24.8 14.9- 4730.0wx-wxwx2wx-1221017.3 989.4 -0.1- 0.012------
2019-06-29 17:00:00 23.8 8.3 14.9--- 3735.0wx-wxwx4wx---1017.0 989.3 -0.4---------
2019-06-29 16:00:00 24.4 9.2 15.6--- 3835.0wxwxwxwxwx5wx---1016.8 989.2 -1.1---------
2019-06-29 15:00:00 24.2 7.9 14.9--- 3530.0wxwxwxwxwx6wx111261017.2 989.5 -1.4---------
2019-06-29 14:00:00 24.3 8.8 15.4--- 3740.0wxwxwxwx7wx---1017.3 989.7 -1.4---------
2019-06-29 13:00:00 23.3 8.7 14.9--- 3935.0wxwxwxwx6wx---1018.1 990.3 -0.9---------
2019-06-29 12:00:00 22.2 8.8 14.5--- 4235.0wxwxwx7wx-1271018.8 990.9 -0.8- 0.06------
2019-06-29 11:00:00 22.7 9.2 14.9--- 4230.0wxwxwx7wx--71018.9 991.1 -0.7---------
2019-06-29 10:00:00 22.1 9.7 14.8--- 4540.0wxwxwxwxwx7wx-1271019.1 991.2 -1.0---------
2019-06-29 09:00:00 20.5 7.6 13.2--- 4335.0wxwxwxwx6wx111161019.8 991.7 -0.5---------
2019-06-29 08:00:00 18.6 7.8 12.4--- 4930.0wxwxwxwx5wx--51020.1 991.8 -0.4---------
2019-06-29 07:00:00 17.1 7.3 11.5--- 5335.0wxwxwx4wx--41020.6 992.2 -0.2---------
2019-06-29 06:00:00 14.9 7.8 10.7 18.1 9.3 8 6330.0wx-wxwx3wx--31020.8 992.2 0.1- 0.012----- 11.9
2019-06-29 05:00:00 13.1 8.5 10.2--- 7445.0wx-wxwx3wx--31021.0 992.2 0.5---------
2019-06-29 04:00:00 11.4 7.4 8.9--- 7645.0wx-wxwx3wx--31021.4 992.4 0.7---------
2019-06-29 03:00:00 9.7 7.2 8.1--- 8450.0wx-wxwx3wx--31021.3 992.1 0.8---------
2019-06-29 02:00:00 10.3 6.7 8.1--- 7850.0wx-wx4wx--41020.8 991.7 0.3---------
2019-06-29 01:00:00 10.5 6.3 7.9--- 7550.0wx-wx3wx--31020.8 991.7 0.4---------
2019-06-29 00:00:00 11.0 6.4 8.2--- 7350.0wx-3wx--31020.3 991.3 0.5- 0.06------
5.3 ms

 

Print Friendly, PDF & Email